createdAt,value
2022-08-05T00:00:10.916Z,23.42
2022-08-05T00:02:49.131Z,23.41
2022-08-05T00:06:01.839Z,23.53
2022-08-05T00:08:00.825Z,23.36
2022-08-05T00:10:27.259Z,23.33
2022-08-05T00:12:59.212Z,23.31
2022-08-05T00:15:55.249Z,23.30
2022-08-05T00:18:05.699Z,23.28
2022-08-05T00:20:39.078Z,23.27
2022-08-05T00:23:13.295Z,23.25
2022-08-05T00:25:46.393Z,23.24
2022-08-05T00:28:21.116Z,23.26
2022-08-05T00:30:53.702Z,23.24
2022-08-05T00:34:55.425Z,23.24
2022-08-05T00:36:16.517Z,23.27
2022-08-05T00:38:34.362Z,23.28
2022-08-05T00:41:11.666Z,23.29
2022-08-05T00:43:49.588Z,23.32
2022-08-05T00:46:16.336Z,23.33
2022-08-05T00:48:51.405Z,23.33
2022-08-05T00:51:51.515Z,23.33
2022-08-05T00:54:02.489Z,23.36
2022-08-05T00:56:32.206Z,23.36
2022-08-05T00:59:06.881Z,23.36
2022-08-05T01:01:48.048Z,23.36
2022-08-05T01:04:14.092Z,23.50
2022-08-05T01:06:48.493Z,23.34
2022-08-05T01:09:19.966Z,23.32
2022-08-05T01:11:55.510Z,23.31
2022-08-05T01:14:40.053Z,23.30
2022-08-05T01:17:25.711Z,23.30
2022-08-05T01:20:07.110Z,23.30
2022-08-05T01:22:54.183Z,23.29
2022-08-05T01:25:52.390Z,23.28
2022-08-05T01:28:37.428Z,23.27
2022-08-05T01:31:17.167Z,23.23
2022-08-05T01:34:04.582Z,23.21
2022-08-05T01:36:42.294Z,23.17
2022-08-05T01:39:15.941Z,23.13
2022-08-05T01:41:52.656Z,23.11
2022-08-05T01:44:34.513Z,23.04
2022-08-05T01:47:05.210Z,23.01
2022-08-05T01:50:01.907Z,22.95
2022-08-05T01:52:17.437Z,22.91
2022-08-05T01:54:52.757Z,22.89
2022-08-05T01:58:10.630Z,22.89
2022-08-05T02:00:11.923Z,22.86
2022-08-05T02:02:55.128Z,22.86
2022-08-05T02:05:30.729Z,22.87
2022-08-05T02:08:05.290Z,22.86
2022-08-05T02:10:58.695Z,22.86
2022-08-05T02:13:53.111Z,22.85
2022-08-05T02:16:32.379Z,22.86
2022-08-05T02:19:11.032Z,22.86
2022-08-05T02:21:46.637Z,22.87
2022-08-05T02:24:23.198Z,22.90
2022-08-05T02:27:09.990Z,22.96
2022-08-05T02:29:58.937Z,23.03
2022-08-05T02:32:12.904Z,23.11
2022-08-05T02:34:54.675Z,23.15
2022-08-05T02:37:22.542Z,23.21
2022-08-05T02:39:56.604Z,23.27
2022-08-05T02:42:34.322Z,23.35
2022-08-05T02:45:04.658Z,23.40
2022-08-05T02:48:06.428Z,23.49
2022-08-05T02:50:13.958Z,23.53
2022-08-05T02:52:49.257Z,23.60
2022-08-05T02:55:55.332Z,23.63
2022-08-05T02:58:20.087Z,23.70
2022-08-05T03:00:30.640Z,23.90
2022-08-05T03:03:10.310Z,23.78
2022-08-05T03:06:55.387Z,23.80
2022-08-05T03:08:16.673Z,23.84
2022-08-05T03:11:02.341Z,23.88
2022-08-05T03:13:27.683Z,23.93
2022-08-05T03:15:58.210Z,24.12
2022-08-05T03:18:30.821Z,24.01
2022-08-05T03:21:03.031Z,24.08
2022-08-05T03:23:36.755Z,24.14
2022-08-05T03:26:30.193Z,24.23
2022-08-05T03:28:45.778Z,24.36
2022-08-05T03:31:55.435Z,24.45
2022-08-05T03:33:53.692Z,24.52
2022-08-05T03:36:30.621Z,24.61
2022-08-05T03:39:13.123Z,24.66
2022-08-05T03:41:46.696Z,24.70
2022-08-05T03:44:19.738Z,24.76
2022-08-05T03:46:52.085Z,24.82
2022-08-05T03:49:31.260Z,24.89
2022-08-05T03:52:48.332Z,24.94
2022-08-05T03:55:33.980Z,25.02
2022-08-05T03:57:28.997Z,25.07
2022-08-05T04:00:03.520Z,25.13
2022-08-05T04:02:52.207Z,25.16
2022-08-05T04:05:15.966Z,25.19
2022-08-05T04:07:57.232Z,25.23
2022-08-05T04:10:22.393Z,25.32
2022-08-05T04:12:54.309Z,25.54
2022-08-05T04:15:33.385Z,25.50
2022-08-05T04:18:09.406Z,25.57
2022-08-05T04:20:41.541Z,25.71
2022-08-05T04:23:16.319Z,25.84
2022-08-05T04:26:00.589Z,25.99
2022-08-05T04:28:30.937Z,26.08
2022-08-05T04:31:01.098Z,26.17
2022-08-05T04:34:17.343Z,26.23
2022-08-05T04:36:15.683Z,26.29
2022-08-05T04:38:51.005Z,26.31
2022-08-05T04:41:34.153Z,26.35
2022-08-05T04:43:57.456Z,26.40
2022-08-05T04:46:30.552Z,26.43
2022-08-05T04:49:03.480Z,26.46
2022-08-05T04:51:36.135Z,26.52
2022-08-05T04:54:09.826Z,26.55
2022-08-05T04:56:43.652Z,26.62
2022-08-05T04:59:33.529Z,26.70
2022-08-05T05:02:08.031Z,26.82
2022-08-05T05:04:25.640Z,26.91
2022-08-05T05:06:57.948Z,26.97
2022-08-05T05:09:30.223Z,27.03
2022-08-05T05:12:04.743Z,27.09
2022-08-05T05:14:38.545Z,27.15
2022-08-05T05:17:13.177Z,27.24
2022-08-05T05:19:47.536Z,27.35
2022-08-05T05:22:23.965Z,27.42
2022-08-05T05:24:58.814Z,27.50
2022-08-05T05:27:44.969Z,27.57
2022-08-05T05:30:28.667Z,27.67
2022-08-05T05:32:44.235Z,27.81
2022-08-05T05:35:19.777Z,27.90
2022-08-05T05:37:59.856Z,27.99
2022-08-05T05:40:29.925Z,28.11
2022-08-05T05:43:03.026Z,28.24
2022-08-05T05:45:35.634Z,28.40
2022-08-05T05:48:08.920Z,28.58
2022-08-05T05:50:44.361Z,28.70
2022-08-05T05:53:22.007Z,28.85
2022-08-05T05:55:51.606Z,29.05
2022-08-05T05:58:31.403Z,29.22
2022-08-05T06:01:12.327Z,29.37
2022-08-05T06:03:53.898Z,29.51
2022-08-05T06:06:07.051Z,29.83
2022-08-05T06:08:39.746Z,29.66
2022-08-05T06:11:11.922Z,29.68
2022-08-05T06:13:50.582Z,29.71
2022-08-05T06:16:30.903Z,29.78
2022-08-05T06:18:54.362Z,29.80
2022-08-05T06:21:35.917Z,30.04
2022-08-05T06:24:02.126Z,29.81
2022-08-05T06:26:35.164Z,29.91
2022-08-05T06:29:42.789Z,30.08
2022-08-05T06:31:42.606Z,30.09
2022-08-05T06:34:15.128Z,29.98
2022-08-05T06:36:56.882Z,29.86
2022-08-05T06:39:27.338Z,29.88
2022-08-05T06:42:04.077Z,29.87
2022-08-05T06:44:36.610Z,29.92
2022-08-05T06:47:30.016Z,30.02
2022-08-05T06:50:00.058Z,30.05
2022-08-05T06:52:36.570Z,30.06
2022-08-05T06:54:54.365Z,30.03
2022-08-05T06:58:03.376Z,29.98
2022-08-05T07:00:03.107Z,29.91
2022-08-05T07:02:47.727Z,29.85
2022-08-05T07:05:27.672Z,29.73
2022-08-05T07:07:55.953Z,29.68
2022-08-05T07:10:32.529Z,29.54
2022-08-05T07:13:46.372Z,29.42
2022-08-05T07:16:12.192Z,29.35
2022-08-05T07:18:47.921Z,29.32
2022-08-05T07:21:25.671Z,29.29
2022-08-05T07:23:53.555Z,29.49
2022-08-05T07:26:25.909Z,29.23
2022-08-05T07:28:59.764Z,29.12
2022-08-05T07:31:41.123Z,29.01
2022-08-05T07:34:08.325Z,29.00
2022-08-05T07:36:40.934Z,29.07
2022-08-05T07:39:24.696Z,29.11
2022-08-05T07:42:13.039Z,29.15
2022-08-05T07:44:21.595Z,29.25
2022-08-05T07:46:53.847Z,29.31
2022-08-05T07:49:26.303Z,29.35
2022-08-05T07:51:59.906Z,29.39
2022-08-05T07:54:33.867Z,29.47
2022-08-05T07:57:22.639Z,29.53
2022-08-05T07:59:41.508Z,29.62
2022-08-05T08:02:16.985Z,29.72
2022-08-05T08:04:49.860Z,29.83
2022-08-05T08:07:23.426Z,29.94
2022-08-05T08:10:00.164Z,30.05
2022-08-05T08:12:49.387Z,30.15
2022-08-05T08:15:15.456Z,30.27
2022-08-05T08:17:52.499Z,30.29
2022-08-05T08:20:43.944Z,30.30
2022-08-05T08:23:03.293Z,30.28
2022-08-05T08:26:00.145Z,30.28
2022-08-05T08:28:18.268Z,30.28
2022-08-05T08:30:47.418Z,30.28
2022-08-05T08:33:19.126Z,30.34
2022-08-05T08:36:03.616Z,30.42
2022-08-05T08:38:36.083Z,30.45
2022-08-05T08:41:01.480Z,30.48
2022-08-05T08:45:23.786Z,30.52
2022-08-05T08:46:10.038Z,30.57
2022-08-05T08:49:06.268Z,30.59
2022-08-05T08:52:01.746Z,30.76
2022-08-05T08:53:53.421Z,30.77
2022-08-05T08:56:27.079Z,30.86
2022-08-05T08:59:00.021Z,31.00
2022-08-05T09:01:33.790Z,30.93
2022-08-05T09:04:06.054Z,30.94
2022-08-05T09:06:39.891Z,31.00
2022-08-05T09:09:13.580Z,31.04
2022-08-05T09:11:52.731Z,31.00
2022-08-05T09:14:56.347Z,31.06
2022-08-05T09:16:53.592Z,31.16
2022-08-05T09:19:28.130Z,31.32
2022-08-05T09:22:23.368Z,31.34
2022-08-05T09:24:34.826Z,31.41
2022-08-05T09:27:09.993Z,31.36
2022-08-05T09:29:49.824Z,31.29
2022-08-05T09:32:51.841Z,31.24
2022-08-05T09:35:01.235Z,31.29
2022-08-05T09:38:12.173Z,31.21
2022-08-05T09:40:11.372Z,31.21
2022-08-05T09:42:44.350Z,31.20
2022-08-05T09:46:06.828Z,31.22
2022-08-05T09:47:55.920Z,31.35
2022-08-05T09:50:44.650Z,31.52
2022-08-05T09:53:23.147Z,31.81
2022-08-05T09:55:57.612Z,32.05
2022-08-05T09:58:21.172Z,32.26
2022-08-05T10:00:59.362Z,32.35
2022-08-05T10:03:56.583Z,32.44
2022-08-05T10:06:15.715Z,32.47
2022-08-05T10:08:50.307Z,32.56
2022-08-05T10:11:21.403Z,32.59
2022-08-05T10:13:55.702Z,32.61
2022-08-05T10:16:41.832Z,32.76
2022-08-05T10:19:13.581Z,32.87
2022-08-05T10:21:47.279Z,33.09
2022-08-05T10:24:21.563Z,33.16
2022-08-05T10:27:00.603Z,33.26
2022-08-05T10:30:41.478Z,33.25
2022-08-05T10:32:52.972Z,33.33
2022-08-05T10:34:42.751Z,33.32
2022-08-05T10:37:17.465Z,33.23
2022-08-05T10:40:03.469Z,33.08
2022-08-05T10:42:34.301Z,32.92
2022-08-05T10:45:21.343Z,32.75
2022-08-05T10:47:56.157Z,32.76
2022-08-05T10:50:20.429Z,32.81
2022-08-05T10:53:00.315Z,32.89
2022-08-05T10:55:38.629Z,32.97
2022-08-05T10:58:15.689Z,33.03
2022-08-05T11:00:55.224Z,33.11
2022-08-05T11:03:26.952Z,33.23
2022-08-05T11:06:15.651Z,33.25
2022-08-05T11:09:32.473Z,33.26
2022-08-05T11:11:56.396Z,33.42
2022-08-05T11:17:59.229Z,33.86
2022-08-05T11:20:17.375Z,33.96
2022-08-05T11:22:53.945Z,34.01
2022-08-05T11:26:05.848Z,33.95
2022-08-05T11:28:17.456Z,34.00
2022-08-05T11:31:05.911Z,34.05
2022-08-05T11:33:53.621Z,34.10
2022-08-05T11:36:53.014Z,34.12
2022-08-05T11:39:55.287Z,34.22
2022-08-05T11:42:28.917Z,34.29
2022-08-05T11:45:23.327Z,34.29
2022-08-05T11:47:48.950Z,34.31
2022-08-05T11:50:14.843Z,34.24
2022-08-05T11:52:53.162Z,34.23
2022-08-05T11:55:43.986Z,34.12
2022-08-05T11:58:20.452Z,34.03
2022-08-05T12:00:55.738Z,33.88
2022-08-05T12:03:31.963Z,33.72
2022-08-05T12:06:10.073Z,33.57
2022-08-05T12:08:53.952Z,33.43
2022-08-05T12:11:40.204Z,33.42
2022-08-05T12:14:11.340Z,33.42
2022-08-05T12:16:47.819Z,33.48
2022-08-05T12:20:26.324Z,33.55
2022-08-05T12:21:57.300Z,33.60
2022-08-05T12:24:30.367Z,33.68
2022-08-05T12:27:09.637Z,33.86
2022-08-05T12:29:38.865Z,34.03
2022-08-05T12:32:13.282Z,34.14
2022-08-05T12:34:46.334Z,34.26
2022-08-05T12:37:30.108Z,34.27
2022-08-05T12:39:54.669Z,34.28
2022-08-05T12:42:31.461Z,34.27
2022-08-05T12:45:09.879Z,34.26
2022-08-05T12:47:43.535Z,34.27
2022-08-05T12:50:17.309Z,34.32
2022-08-05T12:52:59.909Z,34.45
2022-08-05T12:55:32.477Z,34.50
2022-08-05T12:58:48.440Z,35.01
2022-08-05T13:02:05.907Z,35.96
2022-08-05T13:03:17.006Z,38.15
2022-08-05T13:05:50.040Z,41.02
2022-08-05T13:08:22.451Z,43.25
2022-08-05T13:11:02.147Z,45.17
2022-08-05T13:14:06.007Z,46.56
2022-08-05T13:16:17.255Z,47.54
2022-08-05T13:18:55.287Z,48.53
2022-08-05T13:21:38.022Z,49.41
2022-08-05T13:24:02.614Z,49.93
2022-08-05T13:26:36.703Z,50.81
2022-08-05T13:29:09.610Z,51.18
2022-08-05T13:32:04.570Z,50.55
2022-08-05T13:34:21.195Z,50.78
2022-08-05T13:36:51.840Z,51.18
2022-08-05T13:40:14.030Z,50.54
2022-08-05T13:41:59.211Z,50.20
2022-08-05T13:44:31.948Z,50.45
2022-08-05T13:47:09.104Z,51.35
2022-08-05T13:49:45.150Z,51.79
2022-08-05T13:52:20.096Z,51.55
2022-08-05T13:54:54.584Z,51.47
2022-08-05T13:57:27.160Z,51.31
2022-08-05T14:00:00.889Z,51.69
2022-08-05T14:02:35.958Z,51.85
2022-08-05T14:05:19.546Z,52.22
2022-08-05T14:08:05.549Z,51.83
2022-08-05T14:10:28.496Z,51.89
2022-08-05T14:12:59.532Z,52.05
2022-08-05T14:16:08.353Z,52.19
2022-08-05T14:18:15.142Z,52.04
2022-08-05T14:20:41.742Z,51.13
2022-08-05T14:23:24.522Z,51.04
2022-08-05T14:25:53.213Z,51.33
2022-08-05T14:28:26.134Z,51.72
2022-08-05T14:30:59.672Z,51.84
2022-08-05T14:33:59.435Z,52.01
2022-08-05T14:36:08.168Z,52.25
2022-08-05T14:38:39.998Z,52.18
2022-08-05T14:41:13.024Z,54.01
2022-08-05T14:43:57.778Z,52.34
2022-08-05T14:46:21.995Z,52.02
2022-08-05T14:48:54.579Z,51.83
2022-08-05T14:51:30.710Z,51.80
2022-08-05T14:54:27.171Z,51.95
2022-08-05T14:56:36.237Z,51.91
2022-08-05T14:59:09.960Z,51.91
2022-08-05T15:01:48.529Z,51.79
2022-08-05T15:04:16.181Z,51.54
2022-08-05T15:06:49.756Z,51.17
2022-08-05T15:09:52.405Z,51.01
2022-08-05T15:11:57.942Z,50.54
2022-08-05T15:14:34.658Z,50.16
2022-08-05T15:17:03.707Z,51.42
2022-08-05T15:19:36.533Z,48.46
2022-08-05T15:22:10.648Z,46.32
2022-08-05T15:24:44.447Z,44.29
2022-08-05T15:27:17.727Z,42.57
2022-08-05T15:29:51.712Z,40.97
2022-08-05T15:32:28.644Z,39.61
2022-08-05T15:35:09.836Z,38.60
2022-08-05T15:38:33.059Z,37.77
2022-08-05T15:41:00.148Z,37.96
2022-08-05T15:42:54.008Z,36.62
2022-08-05T15:45:16.280Z,36.07
2022-08-05T15:47:50.398Z,35.66
2022-08-05T15:50:25.226Z,35.29
2022-08-05T15:53:03.291Z,34.95
2022-08-05T15:56:03.204Z,34.68
2022-08-05T15:58:06.340Z,34.42
2022-08-05T16:00:50.293Z,34.20
2022-08-05T16:03:16.069Z,34.01
2022-08-05T16:05:52.560Z,33.84
2022-08-05T16:08:24.319Z,33.74
2022-08-05T16:10:59.640Z,33.65
2022-08-05T16:13:34.395Z,33.56
2022-08-05T16:16:07.167Z,33.44
2022-08-05T16:18:52.290Z,33.29
2022-08-05T16:21:17.435Z,33.12
2022-08-05T16:23:53.530Z,32.90
2022-08-05T16:26:26.479Z,32.75
2022-08-05T16:28:58.091Z,32.56
2022-08-05T16:31:56.397Z,32.36
2022-08-05T16:34:04.853Z,32.18
2022-08-05T16:36:38.352Z,32.04
2022-08-05T16:39:13.076Z,31.88
2022-08-05T16:42:14.139Z,31.75
2022-08-05T16:44:21.136Z,31.64
2022-08-05T16:46:55.833Z,31.47
2022-08-05T16:49:30.223Z,31.40
2022-08-05T16:52:03.087Z,31.29
2022-08-05T16:54:37.098Z,31.17
2022-08-05T16:57:21.931Z,31.03
2022-08-05T17:00:00.343Z,30.90
2022-08-05T17:02:20.699Z,31.02
2022-08-05T17:04:54.373Z,30.67
2022-08-05T17:07:38.866Z,30.55
2022-08-05T17:10:02.830Z,30.44
2022-08-05T17:12:51.599Z,30.30
2022-08-05T17:15:10.049Z,30.18
2022-08-05T17:17:44.482Z,30.09
2022-08-05T17:20:17.161Z,29.97
2022-08-05T17:22:55.509Z,29.82
2022-08-05T17:25:39.689Z,29.75
2022-08-05T17:27:59.492Z,29.62
2022-08-05T17:30:32.922Z,29.51
2022-08-05T17:33:08.523Z,29.37
2022-08-05T17:36:07.905Z,29.29
2022-08-05T17:38:18.229Z,29.15
2022-08-05T17:40:51.283Z,28.99
2022-08-05T17:43:47.086Z,28.88
2022-08-05T17:45:58.037Z,28.77
2022-08-05T17:48:32.523Z,28.66
2022-08-05T17:51:09.226Z,28.54
2022-08-05T17:53:39.098Z,28.48
2022-08-05T17:56:12.221Z,28.40
2022-08-05T17:58:44.630Z,28.33
2022-08-05T18:01:16.851Z,28.27
2022-08-05T18:04:03.674Z,28.19
2022-08-05T18:06:29.226Z,28.20
2022-08-05T18:08:58.761Z,28.13
2022-08-05T18:11:33.548Z,28.09
2022-08-05T18:14:13.284Z,27.97
2022-08-05T18:16:46.863Z,27.91
2022-08-05T18:19:16.093Z,27.77
2022-08-05T18:22:08.673Z,27.73
2022-08-05T18:24:22.678Z,27.63
2022-08-05T18:26:55.022Z,27.53
2022-08-05T18:29:40.759Z,27.45
2022-08-05T18:32:01.559Z,27.41
2022-08-05T18:34:41.100Z,27.39
2022-08-05T18:37:12.321Z,27.36
2022-08-05T18:40:34.157Z,27.30
2022-08-05T18:42:16.990Z,27.23
2022-08-05T18:44:55.591Z,27.23
2022-08-05T18:47:26.609Z,27.20
2022-08-05T18:50:15.751Z,27.09
2022-08-05T18:52:51.225Z,27.04
2022-08-05T18:55:23.283Z,26.96
2022-08-05T18:57:56.824Z,26.91
2022-08-05T19:00:30.513Z,26.84
2022-08-05T19:03:04.142Z,26.80
2022-08-05T19:06:12.092Z,26.79
2022-08-05T19:08:13.775Z,26.78
2022-08-05T19:10:47.497Z,26.73
2022-08-05T19:13:20.023Z,26.72
2022-08-05T19:15:58.998Z,26.73
2022-08-05T19:18:29.004Z,26.78
2022-08-05T19:21:01.827Z,26.81
2022-08-05T19:24:06.902Z,26.81
2022-08-05T19:26:11.194Z,26.90
2022-08-05T19:28:43.652Z,26.89
2022-08-05T19:31:19.352Z,26.91
2022-08-05T19:33:56.819Z,26.89
2022-08-05T19:36:24.879Z,26.87
2022-08-05T19:39:01.542Z,26.87
2022-08-05T19:41:58.360Z,26.88
2022-08-05T19:44:13.021Z,26.88
2022-08-05T19:46:40.795Z,26.87
2022-08-05T19:49:16.929Z,26.89
2022-08-05T19:52:08.629Z,26.84
2022-08-05T19:54:29.434Z,26.79
2022-08-05T19:56:56.321Z,26.74
2022-08-05T19:59:59.629Z,26.65
2022-08-05T20:02:02.736Z,26.58
2022-08-05T20:04:35.253Z,26.53
2022-08-05T20:07:13.015Z,26.48
2022-08-05T20:09:54.749Z,26.44
2022-08-05T20:12:15.612Z,26.39
2022-08-05T20:14:49.131Z,26.59
2022-08-05T20:17:24.016Z,26.48
2022-08-05T20:20:00.907Z,26.43
2022-08-05T20:22:33.344Z,26.36
2022-08-05T20:25:05.682Z,26.33
2022-08-05T20:27:42.113Z,26.30
2022-08-05T20:30:13.172Z,26.39
2022-08-05T20:32:45.648Z,26.30
2022-08-05T20:35:18.232Z,26.25
2022-08-05T20:38:06.146Z,26.20
2022-08-05T20:40:25.812Z,26.15
2022-08-05T20:43:00.152Z,26.09
2022-08-05T20:45:55.854Z,26.09
2022-08-05T20:48:06.472Z,26.04
2022-08-05T20:50:42.579Z,26.15
2022-08-05T20:53:36.230Z,25.97
2022-08-05T20:55:54.947Z,25.89
2022-08-05T20:58:23.645Z,25.85
2022-08-05T21:00:57.426Z,25.82
2022-08-05T21:03:34.182Z,25.80
2022-08-05T21:06:05.204Z,25.71
2022-08-05T21:08:42.312Z,25.69
2022-08-05T21:12:07.741Z,25.57
2022-08-05T21:13:56.227Z,25.57
2022-08-05T21:16:22.280Z,25.53
2022-08-05T21:18:57.029Z,25.50
2022-08-05T21:21:39.670Z,25.45
2022-08-05T21:24:12.766Z,25.43
2022-08-05T21:26:47.377Z,25.38
2022-08-05T21:29:18.231Z,25.35
2022-08-05T21:31:51.216Z,25.33
2022-08-05T21:34:23.692Z,25.31
2022-08-05T21:36:56.575Z,25.28
2022-08-05T21:39:29.733Z,25.29
2022-08-05T21:42:02.727Z,25.28
2022-08-05T21:44:35.182Z,25.23
2022-08-05T21:47:17.644Z,25.23
2022-08-05T21:49:56.815Z,25.19
2022-08-05T21:52:26.720Z,25.15
2022-08-05T21:54:51.890Z,25.12
2022-08-05T21:57:32.575Z,25.08
2022-08-05T22:00:10.855Z,25.01
2022-08-05T22:02:33.411Z,24.98
2022-08-05T22:05:06.254Z,24.89
2022-08-05T22:07:58.855Z,24.87
2022-08-05T22:10:14.247Z,24.96
2022-08-05T22:12:50.615Z,24.80
2022-08-05T22:16:01.876Z,24.76
2022-08-05T22:17:59.887Z,24.72
2022-08-05T22:20:29.310Z,24.66
2022-08-05T22:23:21.478Z,24.62
2022-08-05T22:26:15.110Z,24.57
2022-08-05T22:28:47.837Z,24.55
2022-08-05T22:31:21.956Z,24.52
2022-08-05T22:33:55.908Z,24.50
2022-08-05T22:36:28.174Z,24.47
2022-08-05T22:39:09.182Z,24.42
2022-08-05T22:42:10.517Z,24.36
2022-08-05T22:44:11.993Z,24.37
2022-08-05T22:46:45.352Z,24.31
2022-08-05T22:49:45.991Z,24.28
2022-08-05T22:52:04.644Z,24.25
2022-08-05T22:54:28.543Z,24.21
2022-08-05T22:57:00.991Z,24.18
2022-08-05T22:59:46.370Z,24.15
2022-08-05T23:02:12.980Z,24.13
2022-08-05T23:04:51.625Z,24.09
2022-08-05T23:07:22.962Z,24.06
2022-08-05T23:10:01.765Z,24.02
2022-08-05T23:12:32.483Z,23.95
2022-08-05T23:15:08.577Z,23.94
2022-08-05T23:18:01.314Z,23.89
2022-08-05T23:20:17.804Z,23.89
2022-08-05T23:22:55.973Z,23.86
2022-08-05T23:25:53.364Z,23.85
2022-08-05T23:28:00.772Z,23.83
2022-08-05T23:30:32.900Z,23.97
2022-08-05T23:33:06.917Z,23.80
2022-08-05T23:35:40.835Z,23.77
2022-08-05T23:38:13.599Z,23.72
2022-08-05T23:40:49.988Z,23.69
2022-08-05T23:43:25.519Z,23.72
2022-08-05T23:45:55.941Z,23.70
2022-08-05T23:48:28.377Z,23.69
2022-08-05T23:51:01.203Z,23.68
2022-08-05T23:53:46.552Z,23.69
2022-08-05T23:56:09.605Z,23.63
2022-08-05T23:58:42.427Z,23.66
